Aviation Digital Data Service (ADDS)

Output produced by METARs form (0639 UTC 27 March 2017)
found at http://www.aviationweather.gov/adds/metars/
 
VNKT 270620Z 27005KT 6000 FEW015 SCT030 25/15 Q1018 NOSIG
TAF VNKT 270500Z 2706/2806 25005KT 5000 HZ FEW020 
     BECMG 2707/2709 29010KT 8000 FEW025 SCT100 
     PROB40 
     TEMPO 2708/2714 4000 -TSRA FEW025CB BKN100 
     BECMG 2714/2715 VRB02KT 6000 FEW020 SCT100 
     BECMG 2800/2802 4000 BR FEW015 SCT025 
     PROB40 2801/2803 2000 BR 
     BECMG 2804/2805 14005KT 5000 HZ FEW015